Time;durP1;ratioP1;P1;durP2;ratioP2;P2;SDS_P1;SDS_P2;PMS_P1;PMS_P2;Temp;Humidity;BMP_temperature;BMP_pressure;BME280_temperature;BME280_humidity;BME280_pressure;Samples;Min_cycle;Max_cycle;Signal;HPM_P1;HPM_P2
2021/05/19 00:00:41;;;;;;;4.90;3.30;;;8.20;99.90;;;;;;5052604;28;20224;-76
2021/05/19 00:03:07;;;;;;;4.03;3.07;;;8.20;99.90;;;;;;5019390;28;20170;-76
2021/05/19 00:05:32;;;;;;;3.47;2.80;;;8.20;99.90;;;;;;5035872;28;20172;-77
2021/05/19 00:07:58;;;;;;;5.53;3.10;;;8.10;99.90;;;;;;5019175;28;20246;-77
2021/05/19 00:10:23;;;;;;;5.47;3.30;;;8.10;99.90;;;;;;5035420;28;20197;-76
2021/05/19 00:12:49;;;;;;;4.57;3.33;;;8.10;99.90;;;;;;5035703;28;20214;-77
2021/05/19 00:15:15;;;;;;;3.70;2.83;;;8.00;99.90;;;;;;5019104;28;20192;-76
2021/05/19 00:17:44;;;;;;;5.40;3.37;;;8.00;99.90;;;;;;5018873;28;20228;-76
2021/05/19 00:20:11;;;;;;;4.57;3.10;;;8.00;99.90;;;;;;5051889;28;20185;-76
2021/05/19 00:22:36;;;;;;;5.03;3.40;;;8.00;99.90;;;;;;5035574;28;20252;-76
2021/05/19 00:25:03;;;;;;;4.13;2.60;;;7.90;99.90;;;;;;5052084;28;20205;-76
2021/05/19 00:27:28;;;;;;;3.47;2.80;;;7.90;99.90;;;;;;5018798;28;20792;-76
2021/05/19 00:29:54;;;;;;;4.20;3.07;;;7.90;99.90;;;;;;5035332;28;20170;-77
2021/05/19 00:32:20;;;;;;;4.77;3.50;;;7.90;99.90;;;;;;5035087;28;20685;-76
2021/05/19 00:34:48;;;;;;;4.43;2.93;;;7.80;99.90;;;;;;5035454;28;20200;-76
2021/05/19 00:37:14;;;;;;;5.10;3.50;;;7.80;99.90;;;;;;5035525;28;20198;-76
2021/05/19 00:39:40;;;;;;;3.77;3.03;;;7.80;99.90;;;;;;5018743;28;20209;-76
2021/05/19 00:42:06;;;;;;;4.77;3.23;;;7.80;99.90;;;;;;5018670;28;20205;-77
2021/05/19 00:44:31;;;;;;;4.27;2.93;;;7.80;99.90;;;;;;5018405;28;20176;-76
2021/05/19 00:46:57;;;;;;;3.90;2.70;;;7.80;99.90;;;;;;5035140;28;20256;-76
2021/05/19 00:49:22;;;;;;;3.73;3.10;;;7.80;99.90;;;;;;5035062;28;20257;-76
2021/05/19 00:51:48;;;;;;;5.07;3.40;;;7.80;99.90;;;;;;5051426;28;20186;-77
2021/05/19 00:54:13;;;;;;;5.00;2.87;;;7.80;99.90;;;;;;5034842;28;20669;-76
2021/05/19 00:56:40;;;;;;;4.63;3.20;;;7.70;99.90;;;;;;5052960;28;20248;-76
2021/05/19 00:59:05;;;;;;;3.50;2.93;;;7.70;99.90;;;;;;5038500;23;20255;-78
2021/05/19 01:01:35;;;;;;;5.10;3.17;;;7.70;99.90;;;;;;4995259;28;20210;-77
2021/05/19 01:04:01;;;;;;;3.77;3.10;;;7.60;99.90;;;;;;4995945;28;20364;-76
2021/05/19 01:06:37;;;;;;;5.07;3.43;;;7.60;99.90;;;;;;4979242;28;20184;-77
2021/05/19 01:11:48;;;;;;;5.07;3.07;;;7.50;99.90;;;;;;4998043;28;20198;-76
2021/05/19 01:14:14;;;;;;;3.93;2.90;;;7.50;99.90;;;;;;4994961;28;20168;-76
2021/05/19 01:16:39;;;;;;;3.73;3.00;;;7.50;99.90;;;;;;4978957;28;20206;-76
2021/05/19 01:19:05;;;;;;;5.43;3.50;;;7.50;99.90;;;;;;4978630;28;20215;-77
2021/05/19 01:21:31;;;;;;;3.93;2.63;;;7.40;99.90;;;;;;4995115;28;20197;-76
2021/05/19 01:23:57;;;;;;;5.20;3.33;;;7.40;99.90;;;;;;4995252;28;20191;-76
2021/05/19 01:26:23;;;;;;;4.37;3.20;;;7.40;99.90;;;;;;4995177;28;20174;-76
2021/05/19 01:28:49;;;;;;;4.23;2.77;;;7.40;99.90;;;;;;4978631;28;20202;-76
2021/05/19 01:31:14;;;;;;;4.90;3.07;;;7.40;99.90;;;;;;4994745;28;20175;-77
2021/05/19 01:33:40;;;;;;;4.10;3.03;;;7.30;99.90;;;;;;5011315;28;20171;-77
2021/05/19 01:36:06;;;;;;;4.90;3.10;;;7.30;99.90;;;;;;4994799;28;20207;-77
2021/05/19 01:38:33;;;;;;;5.20;3.83;;;7.30;99.90;;;;;;4994722;28;20266;-77
2021/05/19 01:40:59;;;;;;;4.57;3.03;;;7.30;99.90;;;;;;4978672;28;20238;-77
2021/05/19 01:43:34;;;;;;;5.20;3.43;;;7.30;99.90;;;;;;4978643;28;20582;-76
2021/05/19 01:46:01;;;;;;;5.33;3.27;;;7.30;99.90;;;;;;4994765;28;20545;-77
2021/05/19 01:48:26;;;;;;;4.10;3.17;;;7.20;99.90;;;;;;4994851;28;20199;-77
2021/05/19 01:50:52;;;;;;;4.10;3.00;;;7.20;99.90;;;;;;5011943;28;20254;-76
2021/05/19 01:53:17;;;;;;;4.50;3.20;;;7.20;99.90;;;;;;4978726;28;20595;-77
2021/05/19 01:55:43;;;;;;;4.67;2.97;;;7.20;99.90;;;;;;4978621;28;20663;-77
2021/05/19 01:58:09;;;;;;;4.80;3.43;;;7.20;99.90;;;;;;4994532;28;20246;-76
2021/05/19 02:00:34;;;;;;;3.60;2.70;;;7.10;99.90;;;;;;4994225;28;20176;-77
2021/05/19 02:03:02;;;;;;;4.43;3.30;;;7.10;99.90;;;;;;4994872;28;20250;-77
2021/05/19 02:05:28;;;;;;;3.90;2.83;;;7.10;99.90;;;;;;4994925;28;20172;-76
2021/05/19 02:07:54;;;;;;;3.70;3.10;;;7.10;99.90;;;;;;4994472;28;20208;-77
2021/05/19 02:10:19;;;;;;;4.17;3.37;;;7.10;99.90;;;;;;4978155;28;20179;-77
2021/05/19 02:12:45;;;;;;;5.23;3.23;;;7.00;99.90;;;;;;4978228;28;20176;-77
2021/05/19 02:15:11;;;;;;;4.30;3.10;;;7.00;99.90;;;;;;4978437;28;20599;-76
2021/05/19 02:17:37;;;;;;;5.37;3.30;;;7.00;99.90;;;;;;4994675;28;20674;-76
2021/05/19 02:20:10;;;;;;;4.43;3.00;;;7.00;99.90;;;;;;4979136;28;20234;-77
2021/05/19 02:22:36;;;;;;;4.07;3.30;;;6.90;99.90;;;;;;4982926;28;20586;-77
2021/05/19 02:25:03;;;;;;;3.70;2.80;;;6.90;99.90;;;;;;5014904;28;20172;-76
2021/05/19 02:27:28;;;;;;;4.80;3.17;;;6.90;99.90;;;;;;4981955;28;20199;-77
2021/05/19 02:29:54;;;;;;;3.93;3.13;;;6.90;99.90;;;;;;4981989;28;20210;-77
2021/05/19 02:32:21;;;;;;;4.67;3.20;;;6.90;99.90;;;;;;4998163;28;20176;-76
2021/05/19 02:34:46;;;;;;;4.30;3.30;;;6.80;99.90;;;;;;4998133;28;20176;-77
2021/05/19 02:37:12;;;;;;;3.63;3.07;;;6.80;99.90;;;;;;4981763;28;20670;-76
2021/05/19 02:39:37;;;;;;;5.37;2.83;;;6.80;99.90;;;;;;4998048;28;20253;-76
2021/05/19 02:42:03;;;;;;;4.63;3.27;;;6.80;99.90;;;;;;5014208;28;20593;-76
2021/05/19 02:44:29;;;;;;;3.63;3.00;;;6.80;99.90;;;;;;4982028;28;20180;-76
2021/05/19 02:46:54;;;;;;;4.33;2.97;;;6.80;99.90;;;;;;4981852;28;20183;-76
2021/05/19 02:49:20;;;;;;;4.27;3.10;;;6.70;99.90;;;;;;5014231;28;20203;-76
2021/05/19 02:51:46;;;;;;;3.47;3.13;;;6.70;99.90;;;;;;4997813;28;20178;-76
2021/05/19 02:54:11;;;;;;;5.07;3.20;;;6.70;99.90;;;;;;4980904;28;20183;-76
2021/05/19 02:56:37;;;;;;;4.33;3.00;;;6.70;99.90;;;;;;4997744;28;20184;-76
2021/05/19 02:59:03;;;;;;;5.50;3.30;;;6.60;99.90;;;;;;4997422;28;20226;-76
2021/05/19 03:01:29;;;;;;;3.47;3.07;;;6.60;99.90;;;;;;5013921;28;20176;-76
2021/05/19 03:03:55;;;;;;;4.57;3.03;;;6.60;99.90;;;;;;4981428;28;20179;-76
2021/05/19 03:06:22;;;;;;;4.90;3.10;;;6.60;99.90;;;;;;4997582;28;20185;-77
2021/05/19 03:08:48;;;;;;;4.90;3.50;;;6.60;99.90;;;;;;5013437;28;20203;-77
2021/05/19 03:11:13;;;;;;;5.30;3.27;;;6.60;99.90;;;;;;5013642;28;20192;-77
2021/05/19 03:13:39;;;;;;;4.90;3.07;;;6.60;99.90;;;;;;5013745;28;20183;-77
2021/05/19 03:16:04;;;;;;;3.70;2.90;;;6.60;99.90;;;;;;4997436;28;20663;-77
2021/05/19 03:18:30;;;;;;;4.20;3.20;;;6.50;99.90;;;;;;5015069;28;20227;-77
2021/05/19 03:20:55;;;;;;;5.73;3.27;;;6.50;99.90;;;;;;5013600;28;20177;-77
2021/05/19 03:23:21;;;;;;;4.63;3.53;;;6.50;99.90;;;;;;5013680;28;20184;-77
2021/05/19 03:25:46;;;;;;;5.03;3.47;;;6.50;99.90;;;;;;5013561;28;20176;-77
2021/05/19 03:28:12;;;;;;;4.43;3.33;;;6.50;99.90;;;;;;5013666;28;20203;-77
2021/05/19 03:30:38;;;;;;;5.40;3.10;;;6.50;99.90;;;;;;5012809;28;20250;-77
2021/05/19 03:33:04;;;;;;;4.90;3.40;;;6.50;99.90;;;;;;4996444;28;20207;-77
2021/05/19 03:35:30;;;;;;;5.07;3.87;;;6.50;99.90;;;;;;5013435;28;20183;-77
2021/05/19 03:37:55;;;;;;;5.60;3.47;;;6.50;99.90;;;;;;5013310;28;20683;-77
2021/05/19 03:40:21;;;;;;;5.20;3.50;;;6.50;99.90;;;;;;4996707;28;20242;-77
2021/05/19 03:42:47;;;;;;;4.10;3.20;;;6.50;99.90;;;;;;4996797;28;20179;-76
2021/05/19 03:45:15;;;;;;;4.57;3.07;;;6.50;99.90;;;;;;4996764;28;20559;-77
2021/05/19 03:47:40;;;;;;;6.07;3.40;;;6.50;99.90;;;;;;5013268;28;20275;-77
2021/05/19 03:50:07;;;;;;;4.50;3.33;;;6.50;99.90;;;;;;4996636;28;20714;-77
2021/05/19 03:52:33;;;;;;;5.63;3.50;;;6.50;99.90;;;;;;4996984;28;20184;-77
2021/05/19 03:54:59;;;;;;;4.83;3.47;;;6.50;99.90;;;;;;5012899;28;20652;-77
2021/05/19 03:57:24;;;;;;;5.73;3.87;;;6.60;99.90;;;;;;5009206;28;20251;-77
2021/05/19 03:59:50;;;;;;;5.47;3.97;;;6.60;99.90;;;;;;5012546;28;20676;-77
2021/05/19 04:02:15;;;;;;;4.83;3.17;;;6.60;99.90;;;;;;5001593;28;20171;-81
2021/05/19 04:04:41;;;;;;;6.60;3.60;;;6.70;99.90;;;;;;5000585;28;20309;-80
2021/05/19 04:07:07;;;;;;;5.63;3.93;;;6.70;99.90;;;;;;4998064;28;20176;-80
2021/05/19 04:09:33;;;;;;;7.03;4.17;;;6.70;99.90;;;;;;4997874;28;20584;-80
2021/05/19 04:11:58;;;;;;;5.67;4.03;;;6.80;99.90;;;;;;4998433;28;20183;-81
2021/05/19 04:14:24;;;;;;;5.23;3.80;;;6.80;99.90;;;;;;4999824;28;20607;-83
2021/05/19 04:16:50;;;;;;;6.63;4.13;;;6.80;99.90;;;;;;5016576;28;20227;-81
2021/05/19 04:19:16;;;;;;;6.53;4.53;;;6.90;99.90;;;;;;5000313;28;20306;-81
2021/05/19 04:21:41;;;;;;;7.00;4.27;;;7.00;99.90;;;;;;4998794;28;20218;-81
2021/05/19 04:24:08;;;;;;;8.80;4.17;;;7.10;99.90;;;;;;4998144;28;20550;-82
2021/05/19 04:26:33;;;;;;;7.17;5.10;;;7.20;99.90;;;;;;5013721;28;20193;-82
2021/05/19 04:28:59;;;;;;;6.60;5.03;;;7.20;99.90;;;;;;4999369;28;20207;-81
2021/05/19 04:31:24;;;;;;;7.70;5.10;;;7.30;99.90;;;;;;5014458;28;20180;-81
2021/05/19 04:33:50;;;;;;;6.70;4.77;;;7.40;99.90;;;;;;5015179;28;20180;-81
2021/05/19 04:36:16;;;;;;;8.77;5.10;;;7.50;99.90;;;;;;4999046;28;20180;-82
2021/05/19 04:38:41;;;;;;;9.13;5.43;;;7.60;99.90;;;;;;4998889;28;20252;-81
2021/05/19 04:41:07;;;;;;;8.17;5.70;;;7.70;99.90;;;;;;4999549;28;20604;-83
2021/05/19 04:43:33;;;;;;;10.03;6.33;;;7.90;99.90;;;;;;4995292;28;20203;-76
2021/05/19 04:45:58;;;;;;;9.23;6.47;;;8.00;99.90;;;;;;5012019;28;20203;-76
2021/05/19 04:48:24;;;;;;;9.67;6.83;;;8.10;99.90;;;;;;5012479;28;20245;-77
2021/05/19 04:50:49;;;;;;;10.90;6.30;;;8.30;99.90;;;;;;5012025;28;20186;-77
2021/05/19 04:53:15;;;;;;;10.97;6.77;;;8.50;99.90;;;;;;4995611;28;20183;-76
2021/05/19 04:55:41;;;;;;;10.57;7.30;;;8.70;99.90;;;;;;5008856;28;20192;-77
2021/05/19 04:58:06;;;;;;;12.53;6.70;;;8.80;99.90;;;;;;5011048;28;20268;-76
2021/05/19 05:00:33;;;;;;;10.17;7.33;;;8.90;99.90;;;;;;5010218;28;20219;-76
2021/05/19 05:02:59;;;;;;;10.50;6.67;;;9.00;99.90;;;;;;5010300;28;20187;-76
2021/05/19 05:05:25;;;;;;;12.33;7.03;;;9.10;99.90;;;;;;5011501;28;20191;-76
2021/05/19 05:07:51;;;;;;;11.50;7.30;;;9.20;99.90;;;;;;5012051;28;20197;-75
2021/05/19 05:10:16;;;;;;;10.53;6.53;;;9.20;99.90;;;;;;5015733;28;20259;-80
2021/05/19 05:12:44;;;;;;;11.13;6.23;;;9.20;99.90;;;;;;5005245;28;20179;-78
2021/05/19 05:15:11;;;;;;;10.70;7.33;;;9.20;99.90;;;;;;5002396;28;20644;-79
2021/05/19 05:17:37;;;;;;;9.97;6.30;;;9.30;99.90;;;;;;5002409;28;20204;-80
2021/05/19 05:20:08;;;;;;;11.60;6.50;;;9.30;99.90;;;;;;4985604;28;20207;-80
2021/05/19 05:22:34;;;;;;;10.70;6.67;;;9.40;99.90;;;;;;4990692;28;20686;-81
2021/05/19 05:28:21;;;;;;;8.73;6.37;;;9.70;99.90;;;;;;5022176;28;20229;-81
2021/05/19 05:30:48;;;;;;;8.83;6.33;;;9.70;99.90;;;;;;5003628;28;20180;-81
2021/05/19 05:33:14;;;;;;;11.33;6.07;;;9.90;99.90;;;;;;5005572;28;20175;-81
2021/05/19 05:35:40;;;;;;;10.10;6.37;;;10.10;99.90;;;;;;5005050;28;20228;-80
2021/05/19 05:38:05;;;;;;;9.40;5.83;;;10.20;99.90;;;;;;5003837;28;20209;-81
2021/05/19 05:40:31;;;;;;;9.33;5.80;;;10.40;99.90;;;;;;5001899;28;20755;-81
2021/05/19 05:42:56;;;;;;;8.47;6.13;;;10.60;99.90;;;;;;5018642;28;20197;-80
2021/05/19 05:45:22;;;;;;;8.57;5.87;;;11.00;99.90;;;;;;4997443;28;20174;-79
2021/05/19 05:47:47;;;;;;;8.60;5.97;;;11.50;99.90;;;;;;5013574;28;20907;-79
2021/05/19 05:50:13;;;;;;;7.43;5.23;;;12.10;99.90;;;;;;5013058;28;20178;-77
2021/05/19 05:52:39;;;;;;;9.23;5.33;;;12.70;99.90;;;;;;5012079;28;20646;-79
2021/05/19 05:55:05;;;;;;;6.60;4.80;;;13.30;99.90;;;;;;4998270;28;20651;-81
2021/05/19 05:57:31;;;;;;;7.53;4.60;;;13.90;99.90;;;;;;5001470;28;20202;-79
2021/05/19 05:59:57;;;;;;;7.37;5.30;;;13.50;99.90;;;;;;5001177;28;20260;-79
2021/05/19 06:02:22;;;;;;;6.73;5.10;;;13.20;99.90;;;;;;4997420;28;20184;-79
2021/05/19 06:04:48;;;;;;;6.63;4.77;;;12.90;99.90;;;;;;4984548;28;20265;-80
2021/05/19 06:07:14;;;;;;;8.90;5.00;;;12.60;99.90;;;;;;5001102;28;20176;-79
2021/05/19 06:09:42;;;;;;;7.83;5.10;;;12.50;99.90;;;;;;4997533;28;20559;-79
2021/05/19 06:12:07;;;;;;;6.37;4.70;;;12.40;99.90;;;;;;4971565;28;20246;-82
2021/05/19 06:14:33;;;;;;;5.73;4.73;;;12.20;99.90;;;;;;5020448;28;20215;-82
2021/05/19 06:17:02;;;;;;;8.53;4.93;;;12.00;99.90;;;;;;5021616;28;20207;-82
2021/05/19 06:19:28;;;;;;;10.70;5.03;;;11.80;99.90;;;;;;5017840;28;20486;-83
2021/05/19 06:21:53;;;;;;;7.90;5.10;;;11.60;99.90;;;;;;4994713;28;20191;-83
2021/05/19 06:24:19;;;;;;;5.87;4.63;;;11.50;99.90;;;;;;5022562;28;20176;-82
2021/05/19 06:26:45;;;;;;;7.00;4.80;;;11.40;99.90;;;;;;5020278;28;20579;-86
2021/05/19 06:29:10;;;;;;;9.20;5.57;;;11.60;99.90;;;;;;4998024;28;20751;-81
2021/05/19 06:31:38;;;;;;;6.77;5.40;;;11.60;99.90;;;;;;4999140;28;20222;-81
2021/05/19 06:34:03;;;;;;;7.50;4.97;;;11.70;99.90;;;;;;4993901;28;20575;-80
2021/05/19 06:36:29;;;;;;;8.67;5.73;;;11.90;99.90;;;;;;5012753;28;20192;-77
2021/05/19 06:38:55;;;;;;;7.83;4.70;;;12.00;99.90;;;;;;4986497;28;20215;-80
2021/05/19 06:41:21;;;;;;;8.47;5.20;;;12.00;99.90;;;;;;4990995;28;20226;-80
2021/05/19 06:43:46;;;;;;;5.90;4.67;;;12.00;99.90;;;;;;4965031;28;20187;-79
2021/05/19 06:46:12;;;;;;;7.57;4.57;;;12.10;99.90;;;;;;4992445;28;20204;-81
2021/05/19 06:48:37;;;;;;;7.33;5.33;;;12.20;99.90;;;;;;5000008;28;20200;-81
2021/05/19 06:51:03;;;;;;;6.97;4.77;;;12.20;99.90;;;;;;4999887;28;20668;-81
2021/05/19 06:53:29;;;;;;;7.20;5.13;;;12.20;99.90;;;;;;4982632;28;20191;-81
2021/05/19 06:55:56;;;;;;;7.60;5.63;;;12.20;99.90;;;;;;5015403;28;20179;-85
2021/05/19 06:58:22;;;;;;;7.23;4.70;;;12.10;99.90;;;;;;4999849;28;20649;-80
2021/05/19 07:00:47;;;;;;;6.63;5.00;;;12.20;99.90;;;;;;4998901;28;20183;-82
2021/05/19 07:03:13;;;;;;;9.47;5.80;;;12.30;99.90;;;;;;4999323;28;20179;-80
2021/05/19 07:05:38;;;;;;;8.10;5.23;;;12.50;99.90;;;;;;5036008;23;20239;-73
2021/05/19 07:08:06;;;;;;;7.03;5.17;;;13.00;99.90;;;;;;5009473;28;20244;-73
2021/05/19 07:10:31;;;;;;;7.17;4.87;;;13.10;99.90;;;;;;5012610;28;20622;-73
2021/05/19 07:12:57;;;;;;;7.90;4.30;;;13.20;99.90;;;;;;5012444;28;20211;-73
2021/05/19 07:15:23;;;;;;;6.60;4.03;;;13.20;99.90;;;;;;5013171;28;20733;-72
2021/05/19 07:17:49;;;;;;;6.93;3.53;;;13.10;99.90;;;;;;5013041;28;20191;-72
2021/05/19 07:20:14;;;;;;;5.57;3.40;;;13.00;99.90;;;;;;5013806;28;20176;-72
2021/05/19 07:22:40;;;;;;;4.90;3.33;;;12.80;99.90;;;;;;5012731;28;20686;-72
2021/05/19 07:25:06;;;;;;;4.30;3.13;;;12.70;99.90;;;;;;5013094;28;20195;-72
2021/05/19 07:27:32;;;;;;;7.47;3.03;;;12.60;99.90;;;;;;5012755;28;20176;-72
2021/05/19 07:29:57;;;;;;;5.23;3.33;;;12.60;99.90;;;;;;5014398;28;20171;-72
2021/05/19 07:32:23;;;;;;;4.17;3.17;;;12.60;99.90;;;;;;4993106;28;20195;-72
2021/05/19 07:34:48;;;;;;;6.43;3.70;;;12.60;99.90;;;;;;4990450;28;20204;-72
2021/05/19 07:37:14;;;;;;;5.63;4.00;;;12.60;99.90;;;;;;4992909;28;20188;-72
2021/05/19 07:39:39;;;;;;;4.93;3.63;;;12.70;99.90;;;;;;4994673;28;20230;-72
2021/05/19 07:42:05;;;;;;;4.87;3.57;;;12.60;99.90;;;;;;4977128;28;20173;-72
2021/05/19 07:44:31;;;;;;;4.67;3.57;;;12.70;99.90;;;;;;4962568;28;20286;-72
2021/05/19 07:46:57;;;;;;;5.93;3.50;;;12.80;99.90;;;;;;4980386;28;20646;-72
2021/05/19 07:49:23;;;;;;;3.93;3.17;;;12.70;99.90;;;;;;5012878;28;20202;-72
2021/05/19 07:51:48;;;;;;;7.70;3.70;;;12.80;99.90;;;;;;5012617;28;20698;-72
2021/05/19 07:54:23;;;;;;;5.70;4.20;;;12.70;99.90;;;;;;5012828;28;20593;-72
2021/05/19 07:56:58;;;;;;;6.23;3.87;;;12.70;99.90;;;;;;5013605;28;20201;-72
2021/05/19 07:59:27;;;;;;;5.50;3.80;;;12.90;99.90;;;;;;5012879;28;20199;-72
2021/05/19 08:04:28;;;;;;;5.07;3.60;;;12.90;99.90;;;;;;5012665;28;20240;-72
2021/05/19 08:06:54;;;;;;;6.67;4.43;;;12.80;99.90;;;;;;4996229;28;20168;-72
2021/05/19 08:09:19;;;;;;;7.27;4.77;;;12.70;99.90;;;;;;4996053;28;20182;-72
2021/05/19 08:11:45;;;;;;;8.20;4.53;;;12.80;99.90;;;;;;5012129;28;20172;-72
2021/05/19 08:14:11;;;;;;;8.40;4.03;;;12.90;99.90;;;;;;5012432;28;20711;-72
2021/05/19 08:16:37;;;;;;;7.53;4.60;;;12.90;99.90;;;;;;5013575;28;20639;-72
2021/05/19 08:22:24;;;;;;;8.60;5.00;;;13.20;99.90;;;;;;5007464;28;20225;-72
2021/05/19 08:24:50;;;;;;;8.17;4.83;;;13.30;99.90;;;;;;5009849;28;20199;-72
2021/05/19 08:27:15;;;;;;;7.03;4.37;;;13.30;99.90;;;;;;5011612;28;20271;-72
2021/05/19 08:29:42;;;;;;;6.40;4.60;;;13.30;99.90;;;;;;5012160;28;20310;-72
2021/05/19 08:32:08;;;;;;;6.13;4.40;;;13.30;99.90;;;;;;5011785;28;20187;-72
2021/05/19 08:34:34;;;;;;;7.03;4.50;;;13.40;99.90;;;;;;5011942;28;20595;-72
2021/05/19 08:36:59;;;;;;;7.37;5.07;;;13.40;99.90;;;;;;5011824;28;20190;-72
2021/05/19 08:39:25;;;;;;;6.83;4.47;;;13.40;99.90;;;;;;4995458;28;20675;-72
2021/05/19 08:41:50;;;;;;;7.53;4.60;;;13.40;99.90;;;;;;5012991;28;20241;-72
2021/05/19 08:44:17;;;;;;;10.73;4.40;;;13.40;99.90;;;;;;5011660;28;20199;-72
2021/05/19 08:46:46;;;;;;;5.77;4.50;;;13.40;99.90;;;;;;5011857;28;20250;-72
2021/05/19 08:49:11;;;;;;;8.00;4.90;;;13.40;99.90;;;;;;5012556;28;20702;-72
2021/05/19 08:51:37;;;;;;;6.73;4.30;;;13.50;99.90;;;;;;4995361;28;20294;-72
2021/05/19 08:54:05;;;;;;;8.10;4.50;;;13.60;99.90;;;;;;4978947;28;20207;-72
2021/05/19 08:56:31;;;;;;;7.13;5.00;;;13.60;99.90;;;;;;5011558;28;20226;-72
2021/05/19 08:58:56;;;;;;;7.87;4.90;;;13.70;99.90;;;;;;5012710;28;20634;-72
2021/05/19 09:01:23;;;;;;;7.70;5.10;;;13.80;99.90;;;;;;4995143;28;20210;-72
2021/05/19 09:04:05;;;;;;;11.90;5.63;;;14.00;99.90;;;;;;5011091;28;20238;-72
2021/05/19 09:06:30;;;;;;;8.23;5.33;;;14.20;99.90;;;;;;4995335;28;20203;-72
2021/05/19 09:12:18;;;;;;;9.00;5.53;;;14.20;99.90;;;;;;5011492;28;20717;-72
2021/05/19 09:15:01;;;;;;;6.73;5.47;;;14.20;99.90;;;;;;5009703;28;20207;-72
2021/05/19 09:17:30;;;;;;;7.37;5.53;;;14.40;99.90;;;;;;5026723;28;20179;-72
2021/05/19 09:20:03;;;;;;;9.43;6.00;;;14.40;99.90;;;;;;5008902;28;20199;-71
2021/05/19 09:22:34;;;;;;;9.20;5.20;;;14.40;99.90;;;;;;5010650;28;20183;-70
2021/05/19 09:25:02;;;;;;;7.53;4.73;;;14.40;99.90;;;;;;5010265;28;20199;-71
2021/05/19 09:27:38;;;;;;;6.93;4.57;;;14.50;99.90;;;;;;4995042;28;20179;-74
2021/05/19 09:33:28;;;;;;;5.20;3.97;;;14.90;99.90;;;;;;5011877;28;20159;-74
2021/05/19 09:36:15;;;;;;;6.37;4.07;;;15.10;99.90;;;;;;4994779;28;20574;-74
2021/05/19 09:38:42;;;;;;;7.07;4.07;;;15.10;99.90;;;;;;5011991;28;20262;-74
2021/05/19 09:41:17;;;;;;;4.60;4.03;;;15.10;99.90;;;;;;5010844;28;20168;-74
2021/05/19 09:43:42;;;;;;;5.00;3.63;;;15.00;99.90;;;;;;5010736;28;20314;-73
2021/05/19 09:49:10;;;;;;;7.27;4.77;;;15.20;99.90;;;;;;5011175;28;20186;-75
2021/05/19 09:51:36;;;;;;;7.83;4.30;;;15.60;99.90;;;;;;5011742;28;20179;-74
2021/05/19 09:54:02;;;;;;;7.73;4.97;;;15.70;99.90;;;;;;4999880;28;20195;-74
2021/05/19 09:56:28;;;;;;;7.50;5.30;;;15.70;99.90;;;;;;5000444;28;20191;-72
2021/05/19 09:58:53;;;;;;;8.10;4.93;;;15.70;99.90;;;;;;4996201;28;20203;-73
2021/05/19 10:01:19;;;;;;;7.57;5.57;;;15.60;99.90;;;;;;5014281;28;20635;-74
2021/05/19 10:03:44;;;;;;;7.87;5.27;;;15.50;99.90;;;;;;4996711;28;20229;-74
2021/05/19 10:06:21;;;;;;;7.10;5.10;;;15.30;99.90;;;;;;5019087;28;20187;-74
2021/05/19 10:08:50;;;;;;;5.83;3.87;;;15.20;99.90;;;;;;5003442;28;20171;-74
2021/05/19 10:11:16;;;;;;;10.10;3.90;;;15.00;99.90;;;;;;5004869;28;20178;-73
2021/05/19 10:13:42;;;;;;;4.93;3.40;;;14.80;99.90;;;;;;5021677;28;20171;-74
2021/05/19 10:16:08;;;;;;;3.53;3.03;;;14.70;99.90;;;;;;5009295;28;20257;-74
2021/05/19 10:18:36;;;;;;;3.83;2.87;;;14.80;99.90;;;;;;5009529;28;20721;-73
2021/05/19 10:21:01;;;;;;;4.53;3.13;;;14.80;99.90;;;;;;5014391;28;20587;-74
2021/05/19 10:23:40;;;;;;;7.00;3.83;;;15.00;99.90;;;;;;5013483;28;20218;-74
2021/05/19 10:26:12;;;;;;;4.60;3.37;;;15.30;99.90;;;;;;4986179;28;20203;-73
2021/05/19 10:28:42;;;;;;;6.33;3.67;;;15.40;99.90;;;;;;5011053;28;20195;-73
2021/05/19 10:31:41;;;;;;;4.53;3.40;;;15.50;99.90;;;;;;5010544;28;20643;-73
2021/05/19 10:34:07;;;;;;;5.63;3.53;;;15.60;99.90;;;;;;5010705;28;20187;-73
2021/05/19 10:36:41;;;;;;;4.47;3.30;;;15.60;99.90;;;;;;5011118;28;20271;-74
2021/05/19 10:39:07;;;;;;;5.67;3.63;;;15.60;99.90;;;;;;4994169;28;20202;-73
2021/05/19 10:41:47;;;;;;;5.20;3.70;;;15.80;99.90;;;;;;5012685;28;20171;-74
2021/05/19 10:44:17;;;;;;;3.83;3.43;;;16.00;99.90;;;;;;4997905;28;20267;-74
2021/05/19 10:47:04;;;;;;;5.27;3.93;;;16.20;99.90;;;;;;5014278;28;20634;-71
2021/05/19 10:50:05;;;;;;;5.53;3.40;;;16.30;99.90;;;;;;5009922;28;20168;-73
2021/05/19 11:01:14;;;;;;;5.70;4.00;;;15.90;99.90;;;;;;5015133;28;20669;-72
2021/05/19 11:03:40;;;;;;;6.43;3.43;;;15.80;99.90;;;;;;5015036;28;20180;-72
2021/05/19 11:06:08;;;;;;;3.83;3.40;;;15.70;99.90;;;;;;4998079;28;20242;-72
2021/05/19 11:08:36;;;;;;;3.47;3.13;;;15.70;99.90;;;;;;5015196;28;20172;-72
2021/05/19 11:11:21;;;;;;;2.87;2.60;;;15.50;99.90;;;;;;5013948;28;20168;-72
2021/05/19 11:17:09;;;;;;;2.93;2.37;;;15.50;99.90;;;;;;4989808;28;20254;-70
2021/05/19 11:19:36;;;;;;;2.63;2.27;;;15.70;99.90;;;;;;4994156;28;20196;-70
2021/05/19 11:22:04;;;;;;;4.27;2.77;;;15.90;99.90;;;;;;4993769;28;20635;-70
2021/05/19 11:24:29;;;;;;;4.20;2.47;;;15.80;99.90;;;;;;4993897;28;20192;-70
2021/05/19 11:26:55;;;;;;;5.13;2.77;;;15.70;99.90;;;;;;4993908;28;20195;-70
2021/05/19 11:29:20;;;;;;;2.87;2.00;;;15.60;99.90;;;;;;4989063;28;20238;-72
2021/05/19 11:31:47;;;;;;;3.20;2.37;;;15.60;99.90;;;;;;4996764;28;20270;-72
2021/05/19 11:34:19;;;;;;;4.47;2.57;;;15.40;99.90;;;;;;5013203;28;20196;-73
2021/05/19 11:36:47;;;;;;;3.27;2.60;;;15.30;99.90;;;;;;5013606;28;20164;-72
2021/05/19 11:39:26;;;;;;;3.83;2.80;;;15.20;99.90;;;;;;4997345;28;20222;-72
2021/05/19 11:41:53;;;;;;;3.60;3.03;;;15.00;99.90;;;;;;5014551;28;20210;-73
2021/05/19 11:44:30;;;;;;;3.80;3.00;;;14.90;99.90;;;;;;4981356;28;20620;-73
2021/05/19 11:46:55;;;;;;;4.13;3.07;;;15.10;99.90;;;;;;4997188;28;20175;-74
2021/05/19 11:49:21;;;;;;;4.27;2.93;;;15.20;99.90;;;;;;5013387;28;20594;-73
2021/05/19 11:51:46;;;;;;;4.47;2.80;;;15.40;99.90;;;;;;4996807;28;20183;-73
2021/05/19 11:54:12;;;;;;;4.03;2.57;;;15.40;99.90;;;;;;5012703;28;20206;-73
2021/05/19 11:56:48;;;;;;;2.63;2.30;;;15.60;99.90;;;;;;5014191;28;20227;-73
2021/05/19 11:59:28;;;;;;;6.03;2.77;;;15.60;99.90;;;;;;5013022;28;20179;-73
2021/05/19 12:02:02;;;;;;;6.90;3.03;;;15.60;99.90;;;;;;5012641;28;20160;-73
2021/05/19 12:04:30;;;;;;;6.93;4.07;;;15.70;99.90;;;;;;4996808;28;20286;-73
2021/05/19 12:06:56;;;;;;;5.70;4.70;;;15.80;99.90;;;;;;4996677;28;20168;-73
2021/05/19 12:09:22;;;;;;;5.37;4.17;;;16.00;99.90;;;;;;4997003;28;20172;-74
2021/05/19 12:11:49;;;;;;;5.00;3.63;;;16.30;99.90;;;;;;4996158;28;20270;-73
2021/05/19 12:14:15;;;;;;;6.27;3.23;;;16.70;99.90;;;;;;5012718;28;20194;-73
2021/05/19 12:16:47;;;;;;;2.73;2.07;;;17.00;99.90;;;;;;5012799;28;20184;-75
2021/05/19 12:19:22;;;;;;;2.20;2.00;;;17.20;99.90;;;;;;5012585;28;20202;-73
2021/05/19 12:21:52;;;;;;;2.87;2.00;;;17.30;99.90;;;;;;4977267;28;20171;-73
2021/05/19 12:24:20;;;;;;;2.63;2.00;;;17.30;99.90;;;;;;4960906;28;20196;-73
2021/05/19 12:26:46;;;;;;;2.83;2.30;;;17.10;99.90;;;;;;4992851;28;20651;-73
2021/05/19 12:29:37;;;;;;;2.03;1.83;;;17.10;99.90;;;;;;4976776;28;20176;-73
2021/05/19 12:32:18;;;;;;;2.47;2.27;;;16.90;99.90;;;;;;4992412;28;20628;-73
2021/05/19 12:35:03;;;;;;;2.37;1.90;;;16.70;99.90;;;;;;4994129;28;20595;-73
2021/05/19 12:37:39;;;;;;;2.00;1.80;;;16.50;99.90;;;;;;4992725;28;20184;-73
2021/05/19 12:40:06;;;;;;;3.40;2.40;;;16.50;99.90;;;;;;4993820;28;20203;-73
2021/05/19 12:42:41;;;;;;;3.80;2.43;;;16.50;99.90;;;;;;5008786;28;20645;-73
2021/05/19 12:45:07;;;;;;;2.87;2.20;;;16.60;99.90;;;;;;4993821;28;20188;-73
2021/05/19 12:47:32;;;;;;;4.97;1.90;;;16.80;99.90;;;;;;5017617;28;20596;-73
2021/05/19 12:50:02;;;;;;;3.00;1.77;;;16.80;99.90;;;;;;5013300;28;20175;-73
2021/05/19 12:52:35;;;;;;;3.57;1.70;;;16.90;99.90;;;;;;5012252;28;20178;-73
2021/05/19 12:55:00;;;;;;;2.13;1.57;;;17.00;99.90;;;;;;5011987;28;20279;-73
2021/05/19 12:57:30;;;;;;;2.50;1.60;;;17.10;99.90;;;;;;5012108;28;20258;-73
2021/05/19 13:00:14;;;;;;;3.60;1.37;;;17.30;99.90;;;;;;5011776;28;20192;-74
2021/05/19 13:02:40;;;;;;;4.10;1.10;;;17.50;99.90;;;;;;5009027;28;20226;-71
2021/05/19 13:05:25;;;;;;;1.40;1.00;;;17.50;99.90;;;;;;5020310;23;20211;-73
2021/05/19 13:07:51;;;;;;;3.20;1.53;;;17.50;99.90;;;;;;5011537;28;20541;-72
2021/05/19 13:15:55;;;;;;;1.00;0.90;;;17.40;99.90;;;;;;5011757;28;20200;-74
2021/05/19 13:18:48;;;;;;;3.10;1.33;;;17.30;99.90;;;;;;4984000;28;20843;-74
2021/05/19 13:21:21;;;;;;;1.23;0.73;;;17.40;99.90;;;;;;4995000;28;20233;-73
2021/05/19 13:23:51;;;;;;;2.23;0.77;;;17.40;99.90;;;;;;5000487;28;20258;-74
2021/05/19 13:26:18;;;;;;;1.30;0.77;;;17.60;99.90;;;;;;4976299;28;20199;-74
2021/05/19 13:28:44;;;;;;;1.60;0.93;;;17.80;99.90;;;;;;4991676;28;20184;-74
2021/05/19 13:31:11;;;;;;;1.83;0.70;;;17.90;99.90;;;;;;4975457;28;20227;-74